createdAt,value
2018-10-17T00:01:33.952Z,13.70
2018-10-17T00:04:02.823Z,13.90
2018-10-17T00:06:31.636Z,13.80
2018-10-17T00:09:00.484Z,13.90
2018-10-17T00:11:29.308Z,13.80
2018-10-17T00:13:58.159Z,13.80
2018-10-17T00:16:26.992Z,13.80
2018-10-17T00:18:56.609Z,13.70
2018-10-17T00:21:25.402Z,13.80
2018-10-17T00:23:54.239Z,13.70
2018-10-17T00:26:23.086Z,13.70
2018-10-17T00:28:52.664Z,13.60
2018-10-17T00:31:21.505Z,13.60
2018-10-17T00:33:50.335Z,13.80
2018-10-17T00:36:19.184Z,13.70
2018-10-17T00:38:48.016Z,13.60
2018-10-17T00:41:16.939Z,13.60
2018-10-17T00:43:45.713Z,13.70
2018-10-17T00:46:15.307Z,13.70
2018-10-17T00:48:44.155Z,13.70
2018-10-17T00:51:13.000Z,13.80
2018-10-17T00:53:41.851Z,13.70
2018-10-17T00:56:10.688Z,13.70
2018-10-17T00:58:39.541Z,13.70
2018-10-17T01:01:08.372Z,13.70
2018-10-17T01:03:37.938Z,13.60
2018-10-17T01:06:06.781Z,13.70
2018-10-17T01:08:35.617Z,13.70
2018-10-17T01:11:04.507Z,13.70
2018-10-17T01:13:33.304Z,13.70
2018-10-17T01:16:02.145Z,13.70
2018-10-17T01:18:30.972Z,13.70
2018-10-17T01:20:59.813Z,13.70
2018-10-17T01:23:28.648Z,13.70
2018-10-17T01:25:58.238Z,13.70
2018-10-17T01:28:27.078Z,13.60
2018-10-17T01:30:56.657Z,13.60
2018-10-17T01:33:25.483Z,13.50
2018-10-17T01:35:55.071Z,13.40
2018-10-17T01:38:24.653Z,13.10
2018-10-17T01:40:53.525Z,13.20
2018-10-17T01:43:22.343Z,13.10
2018-10-17T01:45:51.162Z,13.10
2018-10-17T01:48:20.000Z,13.10
2018-10-17T01:50:48.876Z,13.10
2018-10-17T01:53:17.715Z,13.10
2018-10-17T01:55:47.291Z,13.00
2018-10-17T01:58:16.135Z,13.00
2018-10-17T02:00:44.987Z,12.90
2018-10-17T02:03:13.817Z,12.90
2018-10-17T02:05:42.664Z,12.80
2018-10-17T02:08:12.252Z,12.80
2018-10-17T02:10:41.099Z,12.80
2018-10-17T02:13:09.933Z,12.80
2018-10-17T02:15:38.755Z,12.80
2018-10-17T02:18:07.602Z,12.70
2018-10-17T02:20:36.425Z,12.80
2018-10-17T02:23:06.041Z,12.70
2018-10-17T02:25:34.853Z,12.70
2018-10-17T02:28:03.695Z,12.70
2018-10-17T02:30:32.545Z,12.70
2018-10-17T02:33:01.380Z,12.70
2018-10-17T02:35:30.962Z,12.70
2018-10-17T02:37:59.811Z,12.70
2018-10-17T02:40:28.633Z,12.60
2018-10-17T02:42:57.515Z,12.50
2018-10-17T02:45:27.045Z,12.50
2018-10-17T02:47:55.889Z,12.30
2018-10-17T02:50:24.731Z,12.40
2018-10-17T02:52:54.346Z,12.40
2018-10-17T02:55:23.147Z,12.20
2018-10-17T02:57:51.982Z,12.20
2018-10-17T03:00:20.838Z,12.10
2018-10-17T03:02:49.663Z,12.00
2018-10-17T03:05:18.568Z,11.90
2018-10-17T03:07:47.339Z,11.80
2018-10-17T03:10:16.165Z,11.90
2018-10-17T03:12:45.016Z,11.90
2018-10-17T03:15:13.854Z,12.00
2018-10-17T03:17:43.427Z,11.90
2018-10-17T03:20:12.264Z,11.80
2018-10-17T03:22:41.104Z,11.90
2018-10-17T03:25:09.995Z,11.90
2018-10-17T03:27:38.790Z,11.90
2018-10-17T03:30:07.633Z,12.00
2018-10-17T03:32:36.481Z,12.00
2018-10-17T03:35:06.153Z,12.00
2018-10-17T03:37:34.905Z,12.00
2018-10-17T03:40:03.747Z,12.00
2018-10-17T03:42:32.582Z,12.00
2018-10-17T03:45:01.424Z,12.00
2018-10-17T03:47:30.265Z,12.00
2018-10-17T03:49:59.160Z,12.00
2018-10-17T03:52:27.961Z,12.00
2018-10-17T03:54:56.849Z,12.00
2018-10-17T03:57:25.675Z,12.10
2018-10-17T03:59:54.476Z,12.10
2018-10-17T04:02:24.073Z,12.00
2018-10-17T04:04:52.906Z,12.10
2018-10-17T04:07:21.753Z,12.10
2018-10-17T04:09:51.316Z,12.00
2018-10-17T04:12:20.157Z,12.20
2018-10-17T04:14:50.408Z,12.20
2018-10-17T04:17:19.145Z,12.20
2018-10-17T04:19:48.111Z,12.20
2018-10-17T04:22:16.811Z,12.20
2018-10-17T04:24:45.648Z,12.10
2018-10-17T04:27:14.499Z,12.20
2018-10-17T04:29:43.337Z,12.10
2018-10-17T04:32:12.176Z,12.10
2018-10-17T04:34:41.010Z,12.10
2018-10-17T04:37:09.900Z,12.00
2018-10-17T04:39:38.705Z,12.00
2018-10-17T04:42:07.534Z,12.00
2018-10-17T04:44:36.377Z,11.90
2018-10-17T04:47:05.330Z,11.70
2018-10-17T04:49:34.141Z,11.60
2018-10-17T04:52:02.986Z,11.50
2018-10-17T04:54:31.825Z,11.50
2018-10-17T04:57:00.661Z,11.50
2018-10-17T04:59:29.497Z,11.60
2018-10-17T05:01:58.333Z,11.40
2018-10-17T05:04:27.186Z,11.30
2018-10-17T05:06:56.844Z,11.30
2018-10-17T05:09:26.337Z,11.30
2018-10-17T05:11:55.182Z,11.40
2018-10-17T05:14:24.029Z,11.30
2018-10-17T05:16:52.874Z,11.30
2018-10-17T05:19:21.713Z,11.30
2018-10-17T05:21:50.557Z,11.30
2018-10-17T05:24:19.384Z,11.30
2018-10-17T05:26:48.227Z,11.30
2018-10-17T05:29:17.121Z,11.30
2018-10-17T05:31:45.901Z,11.20
2018-10-17T05:34:14.745Z,11.30
2018-10-17T05:36:43.602Z,11.20
2018-10-17T05:39:12.446Z,11.30
2018-10-17T05:41:41.306Z,11.20
2018-10-17T05:44:10.137Z,11.20
2018-10-17T05:46:38.985Z,11.20
2018-10-17T05:49:07.840Z,11.20
2018-10-17T05:51:36.662Z,11.20
2018-10-17T05:54:05.496Z,11.20
2018-10-17T05:56:34.341Z,11.20
2018-10-17T05:59:03.272Z,11.10
2018-10-17T06:01:32.025Z,11.10
2018-10-17T06:04:00.852Z,11.10
2018-10-17T06:06:29.686Z,11.20
2018-10-17T06:08:58.520Z,11.20
2018-10-17T06:11:28.097Z,11.20
2018-10-17T06:13:56.940Z,11.30
2018-10-17T06:16:25.781Z,11.30
2018-10-17T06:18:55.412Z,11.30
2018-10-17T06:21:24.183Z,11.30
2018-10-17T06:23:53.021Z,11.30
2018-10-17T06:26:21.845Z,11.30
2018-10-17T06:28:50.702Z,11.40
2018-10-17T06:31:19.582Z,11.40
2018-10-17T06:33:48.426Z,11.30
2018-10-17T06:36:17.232Z,11.50
2018-10-17T06:38:46.814Z,11.50
2018-10-17T06:41:15.730Z,11.50
2018-10-17T06:43:44.599Z,11.50
2018-10-17T06:46:14.090Z,11.50
2018-10-17T06:48:42.925Z,11.70
2018-10-17T06:51:11.839Z,11.60
2018-10-17T06:53:40.619Z,11.60
2018-10-17T06:56:09.452Z,11.60
2018-10-17T06:58:38.307Z,11.70
2018-10-17T07:01:07.183Z,11.80
2018-10-17T07:03:36.001Z,11.70
2018-10-17T07:06:04.845Z,11.70
2018-10-17T07:08:33.769Z,11.70
2018-10-17T07:11:02.591Z,11.90
2018-10-17T07:13:31.801Z,11.90
2018-10-17T07:16:01.447Z,12.00
2018-10-17T07:18:30.229Z,12.10
2018-10-17T07:20:59.079Z,12.20
2018-10-17T07:23:27.892Z,12.30
2018-10-17T07:25:56.747Z,12.30
2018-10-17T07:28:25.604Z,12.40
2018-10-17T07:30:54.475Z,12.50
2018-10-17T07:33:23.323Z,12.60
2018-10-17T07:35:52.268Z,12.60
2018-10-17T07:38:21.037Z,12.60
2018-10-17T07:40:49.885Z,12.70
2018-10-17T07:43:18.752Z,12.80
2018-10-17T07:45:47.673Z,12.90
2018-10-17T07:48:16.500Z,13.10
2018-10-17T07:50:45.316Z,13.20
2018-10-17T07:53:14.149Z,13.30
2018-10-17T07:55:42.978Z,13.40
2018-10-17T07:58:11.822Z,13.40
2018-10-17T08:00:41.397Z,13.30
2018-10-17T08:03:10.279Z,13.40
2018-10-17T08:05:39.073Z,13.60
2018-10-17T08:08:07.911Z,13.70
2018-10-17T08:10:36.784Z,13.80
2018-10-17T08:13:05.626Z,13.90
2018-10-17T08:15:34.454Z,13.90
2018-10-17T08:18:03.304Z,14.00
2018-10-17T08:20:32.136Z,14.10
2018-10-17T08:23:00.982Z,14.20
2018-10-17T08:25:29.833Z,14.20
2018-10-17T08:27:59.431Z,14.30
2018-10-17T08:30:29.018Z,14.40
2018-10-17T08:32:57.856Z,14.50
2018-10-17T08:35:26.801Z,14.60
2018-10-17T08:37:55.713Z,14.60
2018-10-17T08:40:24.385Z,14.70
2018-10-17T08:45:22.710Z,15.00
2018-10-17T08:47:51.553Z,15.00
2018-10-17T08:50:20.384Z,15.10
2018-10-17T08:52:49.217Z,15.10
2018-10-17T08:55:18.119Z,15.20
2018-10-17T08:57:46.962Z,15.30
2018-10-17T09:00:15.755Z,15.30
2018-10-17T09:02:44.614Z,15.30
2018-10-17T09:05:14.207Z,15.50
2018-10-17T09:07:43.098Z,15.50
2018-10-17T09:10:11.909Z,15.60
2018-10-17T09:12:40.751Z,15.70
2018-10-17T09:17:40.451Z,15.90
2018-10-17T09:20:09.505Z,16.00
2018-10-17T09:22:38.208Z,16.10
2018-10-17T09:25:07.034Z,16.10
2018-10-17T09:27:35.814Z,16.00
2018-10-17T09:30:04.747Z,16.20
2018-10-17T09:32:34.243Z,16.20
2018-10-17T09:35:03.182Z,16.40
2018-10-17T09:37:31.943Z,16.40
2018-10-17T09:40:00.796Z,16.40
2018-10-17T09:42:29.636Z,16.50
2018-10-17T09:44:58.490Z,16.50
2018-10-17T09:47:27.318Z,16.60
2018-10-17T09:49:56.157Z,16.70
2018-10-17T09:52:25.000Z,16.70
2018-10-17T09:54:53.837Z,16.80
2018-10-17T09:57:22.674Z,16.80
2018-10-17T09:59:51.536Z,16.80
2018-10-17T10:02:20.409Z,16.90
2018-10-17T10:04:49.208Z,17.00
2018-10-17T10:07:18.800Z,17.00
2018-10-17T10:09:47.659Z,17.00
2018-10-17T10:12:16.556Z,17.20
2018-10-17T10:14:45.335Z,17.20
2018-10-17T10:17:14.253Z,17.20
2018-10-17T10:19:43.016Z,17.30
2018-10-17T10:22:11.931Z,17.30
2018-10-17T10:24:41.517Z,17.20
2018-10-17T10:27:10.287Z,17.30
2018-10-17T10:29:39.188Z,17.40
2018-10-17T10:32:07.972Z,17.40
2018-10-17T10:34:36.820Z,17.50
2018-10-17T10:37:05.678Z,17.60
2018-10-17T10:39:34.515Z,17.70
2018-10-17T10:42:03.394Z,17.80
2018-10-17T10:44:32.185Z,17.70
2018-10-17T10:47:01.027Z,17.70
2018-10-17T10:49:29.870Z,17.70
2018-10-17T10:51:58.706Z,17.90
2018-10-17T10:54:27.541Z,17.90
2018-10-17T10:56:57.159Z,18.00
2018-10-17T10:59:26.120Z,18.10
2018-10-17T11:01:54.843Z,18.20
2018-10-17T11:04:24.401Z,18.30
2018-10-17T11:06:53.247Z,18.40
2018-10-17T11:09:22.077Z,18.50
2018-10-17T11:11:50.913Z,18.40
2018-10-17T11:14:19.993Z,18.60
2018-10-17T11:16:48.609Z,18.60
2018-10-17T11:19:17.451Z,18.70
2018-10-17T11:21:47.059Z,18.80
2018-10-17T11:24:16.634Z,18.80
2018-10-17T11:26:45.467Z,18.80
2018-10-17T11:29:15.076Z,18.80
2018-10-17T11:31:43.958Z,18.80
2018-10-17T11:34:12.757Z,18.80
2018-10-17T11:36:41.647Z,18.80
2018-10-17T11:39:10.458Z,18.90
2018-10-17T11:41:39.314Z,18.90
2018-10-17T11:44:08.132Z,19.00
2018-10-17T11:46:37.001Z,19.10
2018-10-17T11:49:05.858Z,19.10
2018-10-17T11:51:34.652Z,19.10
2018-10-17T11:54:03.493Z,19.30
2018-10-17T11:56:32.323Z,19.40
2018-10-17T11:59:01.192Z,19.60
2018-10-17T12:01:30.003Z,19.70
2018-10-17T12:06:28.446Z,19.80
2018-10-17T12:08:57.910Z,19.80
2018-10-17T12:11:26.766Z,19.80
2018-10-17T12:13:55.576Z,19.90
2018-10-17T12:16:24.451Z,20.00
2018-10-17T12:18:53.336Z,20.10
2018-10-17T12:21:22.226Z,20.10
2018-10-17T12:23:51.020Z,20.20
2018-10-17T12:26:19.821Z,20.10
2018-10-17T12:28:48.755Z,20.20
2018-10-17T12:31:17.512Z,20.20
2018-10-17T12:33:46.348Z,20.20
2018-10-17T12:36:15.194Z,20.30
2018-10-17T12:38:44.784Z,20.30
2018-10-17T12:41:13.665Z,20.40
2018-10-17T12:43:42.475Z,20.40
2018-10-17T12:46:11.313Z,20.40
2018-10-17T12:48:40.896Z,20.50
2018-10-17T12:51:10.192Z,20.60
2018-10-17T12:53:39.126Z,20.70
2018-10-17T12:56:07.912Z,20.70
2018-10-17T12:58:36.744Z,20.80
2018-10-17T13:01:06.387Z,20.80
2018-10-17T13:03:35.181Z,20.80
2018-10-17T13:06:04.043Z,20.80
2018-10-17T13:08:32.895Z,20.90
2018-10-17T13:11:01.737Z,20.90
2018-10-17T13:13:31.366Z,21.00
2018-10-17T13:16:00.313Z,21.00
2018-10-17T13:18:29.154Z,21.00
2018-10-17T13:20:58.006Z,21.00
2018-10-17T13:23:26.863Z,21.00
2018-10-17T13:25:55.701Z,21.00
2018-10-17T13:28:24.549Z,21.00
2018-10-17T13:30:54.180Z,21.10
2018-10-17T13:33:22.988Z,20.90
2018-10-17T13:35:51.838Z,21.00
2018-10-17T13:38:20.673Z,21.00
2018-10-17T13:40:50.257Z,20.90
2018-10-17T13:43:19.240Z,21.00
2018-10-17T13:45:47.930Z,20.90
2018-10-17T13:48:16.778Z,21.00
2018-10-17T13:50:45.628Z,21.00
2018-10-17T13:53:14.510Z,21.00
2018-10-17T13:55:43.321Z,21.00
2018-10-17T13:58:12.227Z,21.00
2018-10-17T14:00:41.029Z,21.00
2018-10-17T14:03:09.912Z,21.10
2018-10-17T14:05:38.745Z,21.10
2018-10-17T14:08:07.581Z,21.10
2018-10-17T14:10:36.425Z,21.10
2018-10-17T14:13:05.274Z,21.10
2018-10-17T14:15:34.124Z,20.90
2018-10-17T14:18:03.029Z,20.80
2018-10-17T14:20:31.880Z,20.90
2018-10-17T14:23:00.691Z,20.90
2018-10-17T14:25:29.545Z,20.90
2018-10-17T14:27:59.121Z,20.80
2018-10-17T14:30:28.077Z,20.90
2018-10-17T14:32:57.715Z,20.90
2018-10-17T14:35:26.502Z,20.90
2018-10-17T14:37:55.399Z,21.00
2018-10-17T14:40:24.199Z,21.00
2018-10-17T14:42:53.058Z,21.00
2018-10-17T14:45:21.910Z,21.10
2018-10-17T14:47:50.754Z,21.00
2018-10-17T14:52:49.054Z,21.00
2018-10-17T14:55:17.901Z,20.90
2018-10-17T14:57:46.756Z,21.00
2018-10-17T15:00:15.590Z,21.00
2018-10-17T15:02:44.442Z,21.00
2018-10-17T15:05:13.386Z,21.00
2018-10-17T15:07:42.184Z,21.00
2018-10-17T15:10:11.029Z,21.00
2018-10-17T15:12:39.841Z,21.00
2018-10-17T15:15:08.748Z,21.00
2018-10-17T15:17:37.616Z,21.00
2018-10-17T15:20:06.446Z,20.90
2018-10-17T15:22:35.305Z,20.90
2018-10-17T15:25:04.163Z,20.90
2018-10-17T15:27:33.608Z,20.90
2018-10-17T15:30:02.537Z,20.90
2018-10-17T15:32:31.347Z,20.80
2018-10-17T15:35:00.265Z,20.80
2018-10-17T15:37:29.356Z,20.80
2018-10-17T15:39:58.142Z,20.70
2018-10-17T15:42:26.989Z,20.70
2018-10-17T15:44:55.872Z,20.70
2018-10-17T15:47:24.682Z,20.60
2018-10-17T15:49:53.781Z,20.50
2018-10-17T15:52:22.623Z,20.50
2018-10-17T15:54:51.572Z,20.30
2018-10-17T15:57:20.322Z,20.20
2018-10-17T15:59:49.168Z,20.10
2018-10-17T16:02:18.056Z,20.10
2018-10-17T16:04:46.873Z,20.00
2018-10-17T16:07:15.730Z,19.80
2018-10-17T16:09:44.565Z,19.70
2018-10-17T16:12:13.429Z,19.60
2018-10-17T16:14:42.229Z,19.50
2018-10-17T16:17:11.148Z,19.30
2018-10-17T16:19:39.904Z,19.30
2018-10-17T16:22:08.751Z,19.30
2018-10-17T16:24:37.590Z,19.10
2018-10-17T16:27:06.437Z,19.10
2018-10-17T16:29:35.269Z,19.00
2018-10-17T16:32:04.162Z,18.90
2018-10-17T16:34:32.967Z,18.80
2018-10-17T16:37:01.823Z,18.90
2018-10-17T16:39:30.663Z,18.80
2018-10-17T16:41:59.517Z,18.80
2018-10-17T16:44:28.327Z,18.70
2018-10-17T16:46:57.161Z,18.60
2018-10-17T16:49:26.034Z,18.60
2018-10-17T16:51:54.860Z,18.50
2018-10-17T16:54:23.703Z,18.40
2018-10-17T16:56:52.561Z,18.40
2018-10-17T16:59:21.400Z,18.30
2018-10-17T17:01:50.233Z,18.40
2018-10-17T17:04:19.119Z,18.30
2018-10-17T17:06:47.932Z,18.30
2018-10-17T17:09:16.858Z,18.30
2018-10-17T17:11:45.602Z,18.30
2018-10-17T17:14:14.445Z,18.20
2018-10-17T17:16:43.287Z,18.20
2018-10-17T17:19:12.122Z,18.10
2018-10-17T17:21:41.137Z,18.10
2018-10-17T17:24:10.029Z,18.10
2018-10-17T17:26:38.822Z,18.10
2018-10-17T17:29:08.418Z,18.00
2018-10-17T17:31:37.266Z,18.10
2018-10-17T17:34:06.100Z,18.00
2018-10-17T17:36:34.960Z,18.00
2018-10-17T17:39:03.804Z,18.00
2018-10-17T17:41:32.692Z,17.90
2018-10-17T17:44:02.278Z,17.80
2018-10-17T17:46:31.130Z,17.80
2018-10-17T17:48:59.991Z,17.70
2018-10-17T17:51:28.845Z,17.70
2018-10-17T17:53:57.703Z,17.60
2018-10-17T17:56:26.555Z,17.60
2018-10-17T17:58:55.401Z,17.50
2018-10-17T18:01:24.256Z,17.50
2018-10-17T18:03:53.104Z,17.60
2018-10-17T18:06:21.990Z,17.50
2018-10-17T18:08:50.778Z,17.60
2018-10-17T18:11:20.370Z,17.40
2018-10-17T18:16:18.677Z,17.40
2018-10-17T18:18:47.546Z,17.30
2018-10-17T18:21:16.393Z,17.40
2018-10-17T18:23:45.243Z,17.40
2018-10-17T18:26:14.838Z,17.40
2018-10-17T18:28:43.693Z,17.30
2018-10-17T18:31:12.551Z,17.20
2018-10-17T18:33:42.115Z,17.10
2018-10-17T18:36:10.956Z,17.10
2018-10-17T18:38:39.796Z,17.00
2018-10-17T18:41:08.645Z,17.00
2018-10-17T18:43:37.504Z,17.00
2018-10-17T18:46:07.103Z,16.90
2018-10-17T18:48:35.936Z,16.90
2018-10-17T18:51:05.004Z,16.90
2018-10-17T18:53:33.827Z,16.80
2018-10-17T18:56:02.723Z,16.80
2018-10-17T18:58:31.553Z,16.80
2018-10-17T19:01:00.368Z,16.80
2018-10-17T19:03:29.226Z,16.70
2018-10-17T19:05:58.844Z,16.70
2018-10-17T19:08:27.676Z,16.80
2018-10-17T19:10:56.530Z,16.70
2018-10-17T19:13:25.372Z,16.70
2018-10-17T19:15:54.283Z,16.70
2018-10-17T19:18:23.065Z,16.70
2018-10-17T19:20:51.938Z,16.60
2018-10-17T19:23:20.780Z,16.60
2018-10-17T19:25:49.646Z,16.60
2018-10-17T19:30:47.934Z,16.50
2018-10-17T19:33:16.823Z,16.50
2018-10-17T19:35:45.674Z,16.50
2018-10-17T19:38:14.480Z,16.50
2018-10-17T19:40:43.349Z,16.40
2018-10-17T19:43:12.204Z,16.40
2018-10-17T19:45:41.055Z,16.40
2018-10-17T19:48:09.897Z,16.30
2018-10-17T19:50:38.743Z,16.20
2018-10-17T19:53:08.338Z,16.20
2018-10-17T19:55:37.171Z,16.20
2018-10-17T19:58:06.022Z,16.20
2018-10-17T20:00:34.865Z,16.20
2018-10-17T20:03:03.724Z,16.20
2018-10-17T20:05:32.563Z,16.10
2018-10-17T20:08:01.458Z,16.10
2018-10-17T20:10:30.293Z,16.00
2018-10-17T20:13:00.047Z,15.90
2018-10-17T20:15:29.054Z,16.00
2018-10-17T20:17:58.227Z,16.00
2018-10-17T20:20:26.801Z,15.80
2018-10-17T20:22:55.685Z,15.90
2018-10-17T20:25:24.542Z,15.80
2018-10-17T20:27:54.143Z,15.80
2018-10-17T20:30:23.015Z,15.70
2018-10-17T20:32:51.876Z,15.70
2018-10-17T20:35:20.720Z,15.70
2018-10-17T20:37:50.453Z,15.70
2018-10-17T20:40:19.307Z,15.70
2018-10-17T20:42:48.162Z,15.60
2018-10-17T20:45:17.009Z,15.60
2018-10-17T20:47:46.605Z,15.50
2018-10-17T20:50:15.492Z,15.60
2018-10-17T20:52:44.289Z,15.50
2018-10-17T20:55:13.894Z,15.50
2018-10-17T20:57:42.749Z,15.50
2018-10-17T21:00:11.607Z,15.50
2018-10-17T21:02:40.451Z,15.40
2018-10-17T21:05:10.071Z,15.30
2018-10-17T21:07:38.911Z,15.30
2018-10-17T21:10:07.749Z,15.30
2018-10-17T21:12:37.334Z,15.30
2018-10-17T21:17:35.607Z,15.30
2018-10-17T21:20:04.456Z,15.30
2018-10-17T21:22:33.297Z,15.30
2018-10-17T21:25:02.139Z,15.30
2018-10-17T21:27:30.982Z,15.20
2018-10-17T21:29:59.819Z,15.10
2018-10-17T21:32:28.666Z,15.10
2018-10-17T21:34:58.246Z,15.20
2018-10-17T21:37:27.102Z,15.20
2018-10-17T21:39:55.947Z,15.20
2018-10-17T21:42:24.784Z,15.10
2018-10-17T21:44:53.623Z,15.10
2018-10-17T21:47:22.591Z,15.10
2018-10-17T21:49:51.346Z,15.10
2018-10-17T21:52:20.170Z,14.90
2018-10-17T21:54:49.010Z,14.90
2018-10-17T21:57:17.861Z,14.80
2018-10-17T21:59:46.712Z,14.80
2018-10-17T22:02:15.572Z,14.90
2018-10-17T22:04:45.163Z,14.80
2018-10-17T22:07:14.747Z,14.60
2018-10-17T22:09:43.650Z,14.70
2018-10-17T22:12:12.452Z,14.80
2018-10-17T22:14:41.300Z,14.80
2018-10-17T22:17:10.129Z,14.90
2018-10-17T22:19:39.016Z,14.90
2018-10-17T22:22:07.817Z,15.00
2018-10-17T22:24:37.394Z,14.70
2018-10-17T22:27:06.238Z,14.70
2018-10-17T22:29:35.079Z,14.70
2018-10-17T22:32:03.980Z,14.70
2018-10-17T22:34:32.800Z,14.90
2018-10-17T22:37:01.642Z,14.80
2018-10-17T22:39:30.479Z,14.80
2018-10-17T22:41:59.322Z,14.80
2018-10-17T22:44:28.195Z,14.70
2018-10-17T22:46:57.025Z,14.80
2018-10-17T22:49:25.880Z,14.70
2018-10-17T22:51:54.733Z,14.70
2018-10-17T22:54:23.566Z,14.60
2018-10-17T22:56:52.403Z,14.60
2018-10-17T22:59:21.256Z,14.70
2018-10-17T23:01:50.109Z,14.70
2018-10-17T23:04:18.946Z,14.70
2018-10-17T23:06:48.530Z,14.60
2018-10-17T23:09:17.362Z,14.60
2018-10-17T23:11:46.207Z,14.50
2018-10-17T23:14:15.132Z,14.50
2018-10-17T23:16:43.908Z,14.40
2018-10-17T23:19:12.752Z,14.50
2018-10-17T23:21:41.594Z,14.60
2018-10-17T23:24:11.183Z,14.50
2018-10-17T23:26:40.021Z,14.50
2018-10-17T23:29:08.853Z,14.50
2018-10-17T23:31:37.690Z,14.50
2018-10-17T23:34:06.538Z,14.40
2018-10-17T23:36:35.387Z,14.40
2018-10-17T23:39:04.230Z,14.50
2018-10-17T23:41:33.807Z,14.40
2018-10-17T23:44:02.690Z,14.40
2018-10-17T23:46:31.477Z,14.40
2018-10-17T23:49:00.310Z,14.30
2018-10-17T23:51:29.904Z,14.30
2018-10-17T23:53:59.531Z,14.20
2018-10-17T23:56:28.309Z,14.20
2018-10-17T23:58:57.152Z,14.20
